Welcome to our Virtual Airline
Sign-in:

Flight MFC33841

  • Submitted By: Thomas Menzel
  • Departure Airport: Koyukuk (KYU)
  • Arrival Airport: Kaltag (KAL)
  • Aircraft: DHC6 TWIN OT (N255MM)
  • Flight Time: 00.33.22
  • Date Submitted: 19/03/28
  • Route: STOP-OVER AT NULATO (NUL)
  • Status: Accepted
Flight Details
Gross Revenue:
(15 load / $ 44.00 per unit
$ 660.00
Fuel Cost:
(87.9969 fuel used @ 5.1 / unit)
$ 448.78

Additional Log Information:

View Log

FS[11:13] ----- Flight Opened -----
FS[11:13] Cigar Box - 1.1.4.0
FS[11:13] FS: Prepar3D V4
FS[11:13] FSUIPC: v5.14
FS[11:13] Flight Number: MFC33841
FS[11:13] FS Aircraft: DHC-6 300 RTMM SKIWHEEL
FS[11:13] FS Model: DHC6
FS[11:13] FS Type: DeHavilland
FS[11:13] Departure: KYU
FS[11:13] Arrival: KAL
FS[11:13] Flight Level: 2500
FS[11:13] Flight Type: H
FS[11:13] Passengers: 15
FS[11:13] FOB: 1739 lbs
FS[11:13] Gate: 3 - KYU
FS[11:13] NOTE: Parking Brake Ignored
FS[11:13] Crash Detection: Disabled
FS[11:13] Engines: 2 Turboprop
FS[11:13] NOTE: Boarding has started
FS[11:13] Parking Brake: Engaged
FS[11:13] Engine 1: Started
FS[11:13] Engine 2: Started
FS[11:13] Light Data: Navigation ON
FS[11:13] Light Data: Beacon ON
FS[11:13] Light Data: Taxi lights ON
FS[11:13] Main Door Closed
FS[11:13] COM1: 123.00
FS[11:13] COM2: 136.00
FS[11:13] Transponder: 7000
FS[11:13] NAV1: 109.50
FS[11:13] NAV2: 110.60
FS[11:13] ADF1: 212.0
FS[11:13] ADF2: 240.0
FS[11:13] Navigation Mode: GPS
FS[11:13] Navigation Mode: GPS
FS[11:14] ADF1: 212.5
FS[11:14] NOTE: Pushing back
FS[11:14] Parking Brake: Released
FS[11:14] ADF1: 212.5
FS[11:15] Light Data: Landing lights ON
FS[11:15] NOTE: Taxi started
FS[11:15] Parking Brake: Engaged
FS[11:15] Flaps: Position 1
FS[11:15] ADF1: 212.5
FS[11:15] Parking Brake: Released
FS[11:16] ADF1: 212.0
FS[11:16] NOTE: ----- TAKE OFF -----
FS[11:16] GS: 79 knots
FS[11:16] TAS: 78 knots
FS[11:16] IAS: 81 knots
FS[11:16] VS: 4 fpm
FS[11:16] FOB: 1729 lbs
FS[11:16] Heading: 270°
FS[11:16] Pitch: 0°
FS[11:16] Bank: 0°
FS[11:16] Aircraft Weight: 8919.50 lbs
FS[11:16] Nearest Airport: KYU
FS[11:16] Distance: 0.15 miles
FS[11:16] Runway: ???
FS[11:16] Ground Surface: Gravel
FS[11:16] Ground Condition: Snow
FS[11:16] NOTE: Weather Report
FS[11:16] Wind Heading: 63°
FS[11:16] Wind Speed: 2 knots
FS[11:16] OAT: -1° C
FS[11:16] TAT: 0° C
FS[11:16] Precipitation: None
FS[11:16] Dew Point: -3° C
FS[11:16] Visibility: 38 miles
FS[11:16] METAR: No METAR available for KYU.
FS[11:16] NOTE: Climb started
FS[11:17] View Mode: Virtual Cockpit
FS[11:17] Flaps: Position 0
FS[11:17] GS: 108 knots
FS[11:17] TAS: 110 knots
FS[11:17] IAS: 113 knots
FS[11:17] VS: 2389 fpm
FS[11:17] ADF1: 212.0
FS[11:17] Autopilot: Engaged
FS[11:17] AGL: 594 ft
FS[11:17] AMSL: 715 ft
FS[11:17] Light Data: Landing lights OFF
FS[11:17] AGL: 889 ft
FS[11:17] AMSL: 1007 ft
FS[11:17] ADF1: 212.5
FS[11:18] NOTE: TOC reached
FS[11:18] NOTE: Cruise started
FS[11:18] GS: 116 knots
FS[11:18] TAS: 123 knots
FS[11:18] IAS: 120 knots
FS[11:18] VS: 186 fpm
FS[11:18] FOB: 1709 lbs
FS[11:18] Heading: 239°
FS[11:18] Pitch: 0°
FS[11:18] Bank: 0°
FS[11:18] Aircraft Weight: 8899.20 lbs
FS[11:18] ADF1: 212.0
FS[11:19] Overspeed: Encountered
FS[11:19] GS: 171 knots
FS[11:19] TAS: 176 knots
FS[11:19] IAS: 175 knots
FS[11:19] VS: -758 fpm
FS[11:19] Overspeed: Corrected
FS[11:19] GS: 167 knots
FS[11:19] TAS: 174 knots
FS[11:19] IAS: 174 knots
FS[11:19] VS: 285 fpm
FS[11:19] ADF1: 212.5
FS[11:19] Light Data: Landing lights ON
FS[11:19] AGL: 2303 ft
FS[11:19] AMSL: 2414 ft
FS[11:20] NOTE: TOD reached
FS[11:20] NOTE: Descent started
FS[11:20] GS: 101 knots
FS[11:20] TAS: 109 knots
FS[11:20] IAS: 109 knots
FS[11:20] VS: -765 fpm
FS[11:20] FOB: 1696 lbs
FS[11:20] Heading: 188°
FS[11:20] Pitch: 3°
FS[11:20] Bank: 0°
FS[11:20] Aircraft Weight: 8886.38 lbs
FS[11:20] NOTE: On approach
FS[11:20] ADF1: 212.5
FS[11:21] ADF1: 212.5
FS[11:21] Flaps: Position 1
FS[11:21] GS: 75 knots
FS[11:21] TAS: 79 knots
FS[11:21] IAS: 80 knots
FS[11:21] VS: 126 fpm
FS[11:22] ADF1: 212.0
FS[11:22] Autopilot: Disengaged
FS[11:22] AGL: 814 ft
FS[11:22] AMSL: 1210 ft
FS[11:22] ADF1: 212.5
FS[11:23] Flaps: Position 2
FS[11:23] GS: 73 knots
FS[11:23] TAS: 77 knots
FS[11:23] IAS: 78 knots
FS[11:23] VS: -281 fpm
FS[11:23] ADF1: 212.0
FS[11:24] Flaps: Position 3
FS[11:24] GS: 75 knots
FS[11:24] TAS: 76 knots
FS[11:24] IAS: 78 knots
FS[11:24] VS: -311 fpm
FS[11:24] Flaps: Position 4
FS[11:24] GS: 75 knots
FS[11:24] TAS: 77 knots
FS[11:24] IAS: 79 knots
FS[11:24] VS: -312 fpm
FS[11:24] ADF1: 212.5
FS[11:25] NOTE: ----- LANDED -----
FS[11:25] Landing Rate: -190.70 fpm
FS[11:25] GS: 60 knots
FS[11:25] TAS: 61 knots
FS[11:25] IAS: 63 knots
FS[11:25] VS: -192 fpm
FS[11:25] FOB: 1682 lbs
FS[11:25] Heading: 198°
FS[11:25] Pitch: 0°
FS[11:25] Bank: 2°
FS[11:25] Aircraft Weight: 8872.85 lbs
FS[11:25] Nearest Airport: NUL
FS[11:25] Distance: 0.20 miles
FS[11:25] Runway: 20 - NUL
FS[11:25] Ground Surface: Gravel
FS[11:25] Ground Condition: Snow
FS[11:25] NOTE: Weather Report
FS[11:25] Wind Heading: 163°
FS[11:25] Wind Speed: 0 knots
FS[11:25] OAT: -3° C
FS[11:25] TAT: -2° C
FS[11:25] Precipitation: None
FS[11:25] Dew Point: -3° C
FS[11:25] Visibility: 25 miles
FS[11:25] METAR: KALB 280951Z 16010KT 10SM FEW250 01/M07 A3038 RMK AO2 SLP290 T00111072KALI 280953Z AUTO 13004KT 10SM CLR 15/ A3011 RMK AO2 SLP196 T0150 $KALK 280956Z AUTO 28009KT 10SM CLR 11/M04 A3017 RMK AO2 SLP138 T01111039KALM 280955Z AUTO 10005KT 10SM CLR 10/M04 A3007 RMK AO2KALN 280955Z AUTO 17008KT 10SM OVC065 10/05 A3011 RMK AO2 T01020051KALO 280954Z AUTO 32008KT 8SM CLR 07/05 A2998 RMK AO2 SLP153 T00670050KALS 280952Z AUTO 26006KT 10SM CLR 05/M06 A3016 RMK AO2 SLP145 T00501056 $KALW 280953Z AUTO 18007KT 10SM FEW026 OVC037 08/04 A3003 RMK AO2 SLP173 T00780039KALX 280955Z AUTO 00000KT 10SM CLR 03/01 A3034 RMK AO2 T00330013
FS[11:25] View Mode: Virtual Cockpit
FS[11:25] Reverse Thrust Started: 56 knots
FS[11:25] NOTE: Taxi started
FS[11:25] ADF1: 212.0
FS[11:25] Reverse Thrust Stopped: 1 knots
FS[11:25] Flaps: Position 0
FS[11:26] ADF1: 212.0
FS[11:26] NOTE: Arrived
FS[11:26] Parking Brake: Engaged
FS[11:26] Parking Brake: Released
FS[11:27] ADF1: 212.5
FS[11:27] Parking Brake: Engaged
FS[11:27] Parking Brake: Released
FS[11:27] ADF1: 212.5
FS[11:28] ADF1: 212.0
FS[11:29] Parking Brake: Engaged
FS[11:29] Flaps: Position 1
FS[11:29] Parking Brake: Released
FS[11:29] ADF1: 212.5
FS[11:30] View Mode: Virtual Cockpit
FS[11:30] Autopilot: Engaged
FS[11:30] AGL: 276 ft
FS[11:30] AMSL: 613 ft
FS[11:30] Flaps: Position 0
FS[11:30] GS: 83 knots
FS[11:30] TAS: 90 knots
FS[11:30] IAS: 92 knots
FS[11:30] VS: 3030 fpm
FS[11:30] Light Data: Landing lights OFF
FS[11:30] AGL: 653 ft
FS[11:30] AMSL: 1020 ft
FS[11:30] ADF1: 212.0
FS[11:31] ADF1: 212.5
FS[11:31] Overspeed: Encountered
FS[11:31] GS: 165 knots
FS[11:31] TAS: 174 knots
FS[11:31] IAS: 175 knots
FS[11:31] VS: -531 fpm
FS[11:32] ADF1: 212.0
FS[11:32] ADF1: 212.5
FS[11:32] Overspeed: Corrected
FS[11:32] GS: 165 knots
FS[11:32] TAS: 173 knots
FS[11:32] IAS: 174 knots
FS[11:32] VS: -25 fpm
FS[11:33] ADF1: 212.0
FS[11:34] ADF1: 212.5
FS[11:35] ADF1: 212.0
FS[11:36] ADF1: 212.5
FS[11:37] ADF1: 212.0
FS[11:37] ADF1: 212.5
FS[11:38] ADF1: 212.0
FS[11:39] ADF1: 212.0
FS[11:39] Light Data: Landing lights ON
FS[11:39] AGL: 1309 ft
FS[11:39] AMSL: 1427 ft
FS[11:40] Flaps: Position 1
FS[11:40] GS: 85 knots
FS[11:40] TAS: 90 knots
FS[11:40] IAS: 91 knots
FS[11:40] VS: -755 fpm
FS[11:40] ADF1: 212.0
FS[11:41] ADF1: 212.5
FS[11:42] Autopilot: Disengaged
FS[11:42] AGL: 873 ft
FS[11:42] AMSL: 974 ft
FS[11:42] ADF1: 212.0
FS[11:42] Flaps: Position 2
FS[11:42] GS: 93 knots
FS[11:42] TAS: 97 knots
FS[11:42] IAS: 99 knots
FS[11:42] VS: 733 fpm
FS[11:42] ADF1: 212.5
FS[11:43] Flaps: Position 3
FS[11:43] GS: 85 knots
FS[11:43] TAS: 87 knots
FS[11:43] IAS: 89 knots
FS[11:43] VS: -595 fpm
FS[11:43] ADF1: 212.0
FS[11:44] Flaps: Position 4
FS[11:44] GS: 79 knots
FS[11:44] TAS: 82 knots
FS[11:44] IAS: 85 knots
FS[11:44] VS: -441 fpm
FS[11:44] ADF1: 212.5
FS[11:45] NOTE: ----- LANDED -----
FS[11:45] Landing Rate: -167.63 fpm
FS[11:45] GS: 66 knots
FS[11:45] TAS: 66 knots
FS[11:45] IAS: 68 knots
FS[11:45] VS: -173 fpm
FS[11:45] FOB: 1553 lbs
FS[11:45] Heading: 209°
FS[11:45] Pitch: 2°
FS[11:45] Bank: 0°
FS[11:45] Aircraft Weight: 8742.98 lbs
FS[11:45] Nearest Airport: KAL
FS[11:45] Distance: 0.19 miles
FS[11:45] Runway: 21 - KAL
FS[11:45] Ground Surface: Gravel
FS[11:45] Ground Condition: Snow
FS[11:45] NOTE: Weather Report
FS[11:45] Wind Heading: 166°
FS[11:45] Wind Speed: 0 knots
FS[11:45] OAT: -3° C
FS[11:45] TAT: -3° C
FS[11:45] Precipitation: None
FS[11:45] Dew Point: -5° C
FS[11:45] Visibility: 26 miles
FS[11:45] METAR: KALB 280951Z 16010KT 10SM FEW250 01/M07 A3038 RMK AO2 SLP290 T00111072KALI 280953Z AUTO 13004KT 10SM CLR 15/ A3011 RMK AO2 SLP196 T0150 $KALK 280956Z AUTO 28009KT 10SM CLR 11/M04 A3017 RMK AO2 SLP138 T01111039KALM 280955Z AUTO 10005KT 10SM CLR 10/M04 A3007 RMK AO2KALN 280955Z AUTO 17008KT 10SM OVC065 10/05 A3011 RMK AO2 T01020051KALO 280954Z AUTO 32008KT 8SM CLR 07/05 A2998 RMK AO2 SLP153 T00670050KALS 280952Z AUTO 26006KT 10SM CLR 05/M06 A3016 RMK AO2 SLP145 T00501056 $KALW 280953Z AUTO 18007KT 10SM FEW026 OVC037 08/04 A3003 RMK AO2 SLP173 T00780039KALX 280955Z AUTO 00000KT 10SM CLR 03/01 A3034 RMK AO2 T00330013
FS[11:45] View Mode: Virtual Cockpit
FS[11:45] Reverse Thrust Started: 52 knots
FS[11:45] ADF1: 212.0
FS[11:45] Flaps: Position 0
FS[11:45] Reverse Thrust Stopped: 1 knots
FS[11:46] ADF1: 212.5
FS[11:46] Parking Brake: Engaged
FS[11:46] Parking Brake: Released
FS[11:46] Parking Brake: Engaged
FS[11:47] Gate: n/a
FS[11:47] NOTE: Flight Completed
FS[11:47] FS Aircraft: DHC-6 300 RTMM SKIWHEEL
FS[11:47] FS Model: DHC6
FS[11:47] FS Type: DeHavilland
FS[11:47] FOB: 1545 lbs
FS[11:47] Fuel Used: 194 lbs
FS[11:47] Flight Time: 00:33:21
FS[11:47] Flight Time (Dawn): 00:00:00
FS[11:47] Flight Time (Day): 00:33:21
FS[11:47] Flight Time (Dusk): 00:00:00
FS[11:47] Flight Time (Night): 00:00:00
FS[11:47] Total Landings: 2
FS[11:47] MaxSim Rate: 0x
FS[11:47] Cigar Box - 1.1.4.0
FS[11:47] ----- Flight Closed -----

Route Map